createdAt,value
2022-10-31T00:00:12.614Z,100751.22
2022-10-31T00:02:39.459Z,100753.19
2022-10-31T00:05:05.747Z,100757.56
2022-10-31T00:07:32.016Z,100755.50
2022-10-31T00:09:58.280Z,100751.53
2022-10-31T00:12:24.553Z,100761.44
2022-10-31T00:14:50.796Z,100746.50
2022-10-31T00:17:17.070Z,100748.63
2022-10-31T00:19:43.329Z,100759.06
2022-10-31T00:22:09.573Z,100755.84
2022-10-31T00:24:35.834Z,100761.22
2022-10-31T00:27:02.080Z,100757.97
2022-10-31T00:29:28.347Z,100766.25
2022-10-31T00:31:54.618Z,100759.81
2022-10-31T00:34:20.866Z,100775.38
2022-10-31T00:36:47.105Z,100766.25
2022-10-31T00:39:13.365Z,100776.34
2022-10-31T00:41:39.693Z,100761.94
2022-10-31T00:44:05.989Z,100764.53
2022-10-31T00:46:32.286Z,100762.88
2022-10-31T00:48:58.549Z,100764.63
2022-10-31T00:51:24.819Z,100766.00
2022-10-31T00:53:51.075Z,100766.78
2022-10-31T00:56:17.371Z,100768.69
2022-10-31T00:58:43.635Z,100768.59
2022-10-31T01:01:09.988Z,100764.50
2022-10-31T01:03:36.384Z,100768.16
2022-10-31T01:06:02.691Z,100763.84
2022-10-31T01:08:28.944Z,100767.16
2022-10-31T01:10:55.210Z,100773.00
2022-10-31T01:15:48.562Z,100763.53
2022-10-31T01:18:14.817Z,100775.13
2022-10-31T01:20:41.065Z,100778.50
2022-10-31T01:23:07.342Z,100772.28
2022-10-31T01:25:33.589Z,100774.22
2022-10-31T01:28:00.043Z,100777.66
2022-10-31T01:30:26.506Z,100773.06
2022-10-31T01:32:52.798Z,100773.91
2022-10-31T01:35:19.041Z,100773.56
2022-10-31T01:37:45.289Z,100773.75
2022-10-31T01:40:11.574Z,100769.34
2022-10-31T01:42:37.821Z,100769.25
2022-10-31T01:45:04.070Z,100767.41
2022-10-31T01:47:30.620Z,100770.56
2022-10-31T01:49:56.870Z,100771.56
2022-10-31T01:52:23.126Z,100774.56
2022-10-31T01:54:49.429Z,100774.56
2022-10-31T01:57:16.177Z,100773.41
2022-10-31T01:59:42.426Z,100766.59
2022-10-31T02:02:08.863Z,100775.63
2022-10-31T02:04:35.177Z,100781.13
2022-10-31T02:07:01.437Z,100770.63
2022-10-31T02:09:27.685Z,100780.44
2022-10-31T02:11:53.928Z,100769.09
2022-10-31T02:14:20.186Z,100780.34
2022-10-31T02:16:46.435Z,100778.53
2022-10-31T02:19:12.684Z,100783.81
2022-10-31T02:21:38.978Z,100785.25
2022-10-31T02:24:05.234Z,100781.28
2022-10-31T02:26:31.487Z,100781.00
2022-10-31T02:28:57.752Z,100780.06
2022-10-31T02:31:24.012Z,100785.41
2022-10-31T02:33:50.433Z,100796.81
2022-10-31T02:36:16.692Z,100790.69
2022-10-31T02:38:42.961Z,100794.25
2022-10-31T02:41:09.210Z,100791.84
2022-10-31T02:43:35.632Z,100796.19
2022-10-31T02:46:01.889Z,100799.72
2022-10-31T02:48:28.190Z,100791.78
2022-10-31T02:50:54.487Z,100795.03
2022-10-31T02:53:20.761Z,100802.03
2022-10-31T02:55:47.004Z,100790.25
2022-10-31T02:58:13.361Z,100795.69
2022-10-31T03:00:39.671Z,100800.84
2022-10-31T03:03:05.954Z,100797.44
2022-10-31T03:05:32.262Z,100802.78
2022-10-31T03:07:58.550Z,100808.38
2022-10-31T03:10:24.799Z,100813.69
2022-10-31T03:12:51.088Z,100810.81
2022-10-31T03:15:17.342Z,100810.06
2022-10-31T03:17:43.620Z,100813.25
2022-10-31T03:20:09.866Z,100809.88
2022-10-31T03:22:36.137Z,100815.25
2022-10-31T03:25:02.385Z,100808.41
2022-10-31T03:27:28.647Z,100807.41
2022-10-31T03:29:54.914Z,100815.31
2022-10-31T03:32:21.165Z,100806.50
2022-10-31T03:34:47.420Z,100812.94
2022-10-31T03:37:13.681Z,100814.19
2022-10-31T03:39:39.945Z,100825.69
2022-10-31T03:42:06.206Z,100818.94
2022-10-31T03:44:32.462Z,100812.16
2022-10-31T03:46:58.745Z,100821.50
2022-10-31T03:49:24.996Z,100820.53
2022-10-31T03:51:51.261Z,100824.19
2022-10-31T03:54:17.513Z,100823.22
2022-10-31T03:56:43.762Z,100820.47
2022-10-31T03:59:10.010Z,100829.34
2022-10-31T04:01:36.410Z,100831.56
2022-10-31T04:04:02.720Z,100820.66
2022-10-31T04:06:28.969Z,100828.75
2022-10-31T04:08:55.219Z,100827.88
2022-10-31T04:11:21.478Z,100832.03
2022-10-31T04:13:47.751Z,100829.16
2022-10-31T04:16:16.950Z,100831.59
2022-10-31T04:18:43.758Z,100831.34
2022-10-31T04:21:10.011Z,100836.53
2022-10-31T04:23:36.317Z,100831.59
2022-10-31T04:26:02.584Z,100840.94
2022-10-31T04:28:28.844Z,100837.47
2022-10-31T04:30:55.108Z,100832.81
2022-10-31T04:33:21.391Z,100839.66
2022-10-31T04:35:47.656Z,100831.44
2022-10-31T04:38:13.942Z,100835.75
2022-10-31T04:43:30.233Z,100833.25
2022-10-31T04:45:56.569Z,100839.91
2022-10-31T04:48:22.820Z,100835.53
2022-10-31T04:50:49.072Z,100839.94
2022-10-31T04:53:15.418Z,100851.19
2022-10-31T04:55:41.661Z,100846.34
2022-10-31T04:58:07.946Z,100843.47
2022-10-31T05:00:34.842Z,100847.47
2022-10-31T05:03:01.565Z,100844.44
2022-10-31T05:05:27.982Z,100850.16
2022-10-31T05:07:54.244Z,100843.66
2022-10-31T05:10:20.578Z,100839.63
2022-10-31T05:12:47.493Z,100841.59
2022-10-31T05:15:13.775Z,100849.72
2022-10-31T05:17:40.047Z,100847.13
2022-10-31T05:20:06.336Z,100853.53
2022-10-31T05:22:32.586Z,100848.69
2022-10-31T05:24:58.863Z,100852.41
2022-10-31T05:27:25.125Z,100846.44
2022-10-31T05:29:51.416Z,100852.16
2022-10-31T05:32:17.698Z,100842.75
2022-10-31T05:34:43.937Z,100849.47
2022-10-31T05:37:10.201Z,100851.88
2022-10-31T05:39:36.450Z,100854.81
2022-10-31T05:42:02.919Z,100853.44
2022-10-31T05:44:29.162Z,100860.53
2022-10-31T05:46:55.419Z,100857.31
2022-10-31T05:49:21.694Z,100857.75
2022-10-31T05:51:47.941Z,100859.13
2022-10-31T05:54:15.982Z,100861.53
2022-10-31T05:56:42.510Z,100872.34
2022-10-31T05:59:08.768Z,100873.97
2022-10-31T06:01:35.056Z,100875.38
2022-10-31T06:04:01.345Z,100877.16
2022-10-31T06:06:27.614Z,100876.66
2022-10-31T06:08:53.890Z,100877.16
2022-10-31T06:11:20.159Z,100872.00
2022-10-31T06:13:46.413Z,100881.75
2022-10-31T06:16:12.668Z,100881.25
2022-10-31T06:18:38.909Z,100872.78
2022-10-31T06:21:05.154Z,100880.84
2022-10-31T06:23:31.409Z,100881.63
2022-10-31T06:25:57.709Z,100886.84
2022-10-31T06:28:23.960Z,100886.53
2022-10-31T06:30:50.201Z,100890.84
2022-10-31T06:33:16.452Z,100895.25
2022-10-31T06:35:42.727Z,100901.41
2022-10-31T06:38:08.985Z,100906.50
2022-10-31T06:40:35.260Z,100905.09
2022-10-31T06:43:01.534Z,100903.88
2022-10-31T06:45:27.827Z,100916.16
2022-10-31T06:48:15.542Z,100915.38
2022-10-31T06:50:40.627Z,100911.34
2022-10-31T06:53:07.071Z,100913.75
2022-10-31T06:55:33.380Z,100920.84
2022-10-31T06:58:02.026Z,100924.72
2022-10-31T07:00:29.583Z,100917.69
2022-10-31T07:02:55.875Z,100920.69
2022-10-31T07:05:22.182Z,100924.38
2022-10-31T07:07:48.600Z,100928.84
2022-10-31T07:10:14.853Z,100928.78
2022-10-31T07:12:42.047Z,100930.84
2022-10-31T07:15:08.236Z,100929.28
2022-10-31T07:17:34.801Z,100931.88
2022-10-31T07:20:01.066Z,100929.63
2022-10-31T07:22:27.403Z,100924.53
2022-10-31T07:24:53.663Z,100937.22
2022-10-31T07:27:19.915Z,100937.50
2022-10-31T07:29:46.317Z,100932.41
2022-10-31T07:32:12.566Z,100933.00
2022-10-31T07:34:41.253Z,100929.72
2022-10-31T07:37:11.067Z,100937.50
2022-10-31T07:39:37.326Z,100931.53
2022-10-31T07:42:03.611Z,100940.84
2022-10-31T07:44:29.877Z,100940.25
2022-10-31T07:46:56.125Z,100931.00
2022-10-31T07:49:22.408Z,100939.34
2022-10-31T07:51:48.664Z,100938.59
2022-10-31T07:54:14.909Z,100939.38
2022-10-31T07:56:41.181Z,100947.41
2022-10-31T07:59:07.529Z,100942.56
2022-10-31T08:01:33.841Z,100940.19
2022-10-31T08:04:00.094Z,100939.81
2022-10-31T08:06:26.404Z,100943.50
2022-10-31T08:08:52.680Z,100939.13
2022-10-31T08:11:19.002Z,100943.09
2022-10-31T08:13:45.333Z,100941.50
2022-10-31T08:16:11.721Z,100937.09
2022-10-31T08:18:38.727Z,100942.28
2022-10-31T08:21:06.508Z,100945.09
2022-10-31T08:23:32.767Z,100940.00
2022-10-31T08:25:59.070Z,100936.38
2022-10-31T08:28:25.333Z,100933.88
2022-10-31T08:30:51.611Z,100928.44
2022-10-31T08:33:17.959Z,100931.47
2022-10-31T08:35:44.269Z,100934.72
2022-10-31T08:38:13.751Z,100932.09
2022-10-31T08:40:40.018Z,100938.59
2022-10-31T08:43:06.485Z,100934.22
2022-10-31T08:45:32.842Z,100936.75
2022-10-31T08:47:59.517Z,100934.13
2022-10-31T08:50:26.009Z,100937.28
2022-10-31T08:53:04.674Z,100926.59
2022-10-31T08:55:32.034Z,100933.09
2022-10-31T08:57:58.624Z,100933.16
2022-10-31T09:00:25.221Z,100933.00
2022-10-31T09:02:51.501Z,100923.47
2022-10-31T09:05:17.809Z,100930.47
2022-10-31T09:07:44.053Z,100926.72
2022-10-31T09:10:10.331Z,100927.50
2022-10-31T09:12:36.589Z,100928.97
2022-10-31T09:15:02.879Z,100934.66
2022-10-31T09:17:31.609Z,100932.94
2022-10-31T09:19:57.918Z,100942.16
2022-10-31T09:22:24.174Z,100940.88
2022-10-31T09:24:50.482Z,100944.44
2022-10-31T09:27:16.738Z,100942.75
2022-10-31T09:29:43.038Z,100941.66
2022-10-31T09:32:09.292Z,100935.00
2022-10-31T09:34:35.541Z,100940.16
2022-10-31T09:37:01.820Z,100931.97
2022-10-31T09:39:28.090Z,100938.00
2022-10-31T09:41:56.281Z,100927.19
2022-10-31T09:44:23.581Z,100928.41
2022-10-31T09:46:49.862Z,100929.88
2022-10-31T09:49:16.170Z,100932.06
2022-10-31T09:51:42.449Z,100925.66
2022-10-31T09:54:09.758Z,100929.31
2022-10-31T09:56:36.390Z,100930.19
2022-10-31T09:59:02.748Z,100927.25
2022-10-31T10:01:29.143Z,100927.56
2022-10-31T10:03:55.624Z,100926.31
2022-10-31T10:06:21.877Z,100921.84
2022-10-31T10:08:48.212Z,100921.03
2022-10-31T10:11:14.490Z,100923.03
2022-10-31T10:13:40.754Z,100922.97
2022-10-31T10:16:07.022Z,100917.44
2022-10-31T10:18:33.295Z,100928.72
2022-10-31T10:20:59.760Z,100922.50
2022-10-31T10:23:26.033Z,100921.25
2022-10-31T10:25:52.314Z,100915.09
2022-10-31T10:28:19.044Z,100904.41
2022-10-31T10:30:45.332Z,100903.38
2022-10-31T10:33:11.624Z,100906.47
2022-10-31T10:35:37.882Z,100896.63
2022-10-31T10:38:04.290Z,100898.59
2022-10-31T10:40:30.745Z,100898.91
2022-10-31T10:43:15.535Z,100898.19
2022-10-31T10:46:00.252Z,100891.06
2022-10-31T10:48:26.527Z,100889.94
2022-10-31T10:50:52.788Z,100889.38
2022-10-31T10:53:22.346Z,100876.53
2022-10-31T10:55:48.669Z,100882.69
2022-10-31T10:58:14.942Z,100880.25
2022-10-31T11:00:41.305Z,100878.09
2022-10-31T11:03:07.725Z,100879.53
2022-10-31T11:05:34.088Z,100878.38
2022-10-31T11:08:00.384Z,100872.81
2022-10-31T11:10:26.667Z,100865.94
2022-10-31T11:12:52.935Z,100864.53
2022-10-31T11:15:19.217Z,100866.25
2022-10-31T11:17:45.583Z,100858.53
2022-10-31T11:20:16.224Z,100855.94
2022-10-31T11:22:45.270Z,100856.66
2022-10-31T11:25:11.721Z,100850.06
2022-10-31T11:27:37.972Z,100846.03
2022-10-31T11:30:04.243Z,100846.44
2022-10-31T11:32:30.710Z,100846.44
2022-10-31T11:34:57.044Z,100840.44
2022-10-31T11:37:23.321Z,100849.03
2022-10-31T11:39:54.057Z,100833.34
2022-10-31T11:42:20.366Z,100829.56
2022-10-31T11:44:46.694Z,100825.38
2022-10-31T11:47:12.977Z,100826.28
2022-10-31T11:49:39.245Z,100823.50
2022-10-31T11:52:05.530Z,100819.16
2022-10-31T11:54:31.822Z,100825.44
2022-10-31T11:56:58.111Z,100818.50
2022-10-31T11:59:24.389Z,100816.19
2022-10-31T12:01:50.851Z,100814.44
2022-10-31T12:04:18.001Z,100810.13
2022-10-31T12:06:44.257Z,100805.00
2022-10-31T12:09:10.578Z,100803.38
2022-10-31T12:11:36.878Z,100802.66
2022-10-31T12:14:04.259Z,100796.78
2022-10-31T12:19:19.108Z,100789.06
2022-10-31T12:21:45.776Z,100792.00
2022-10-31T12:24:12.029Z,100784.25
2022-10-31T12:26:38.586Z,100781.69
2022-10-31T12:29:04.885Z,100778.19
2022-10-31T12:31:31.138Z,100777.06
2022-10-31T12:33:57.401Z,100775.13
2022-10-31T12:36:23.672Z,100774.34
2022-10-31T12:38:49.965Z,100768.63
2022-10-31T12:41:16.225Z,100772.47
2022-10-31T12:43:42.496Z,100768.53
2022-10-31T12:46:09.244Z,100767.34
2022-10-31T12:48:35.580Z,100764.63
2022-10-31T12:51:01.856Z,100762.81
2022-10-31T12:53:28.728Z,100751.09
2022-10-31T12:55:55.038Z,100759.63
2022-10-31T12:58:21.293Z,100752.41
2022-10-31T13:00:47.682Z,100747.84
2022-10-31T13:03:13.969Z,100741.25
2022-10-31T13:05:41.231Z,100742.88
2022-10-31T13:08:07.652Z,100744.25
2022-10-31T13:10:36.441Z,100737.19
2022-10-31T13:13:03.006Z,100742.94
2022-10-31T13:15:29.427Z,100732.16
2022-10-31T13:17:55.716Z,100725.63
2022-10-31T13:20:22.005Z,100732.28
2022-10-31T13:22:48.289Z,100730.28
2022-10-31T13:25:14.600Z,100722.34
2022-10-31T13:27:40.849Z,100722.94
2022-10-31T13:30:07.161Z,100719.53
2022-10-31T13:32:34.063Z,100717.50
2022-10-31T13:35:00.806Z,100718.22
2022-10-31T13:37:27.098Z,100712.53
2022-10-31T13:39:53.375Z,100716.09
2022-10-31T13:42:19.655Z,100714.78
2022-10-31T13:44:45.928Z,100718.31
2022-10-31T13:47:12.186Z,100708.13
2022-10-31T13:49:39.024Z,100709.97
2022-10-31T13:52:05.292Z,100710.97
2022-10-31T13:54:32.291Z,100701.66
2022-10-31T13:56:58.491Z,100708.25
2022-10-31T13:59:24.931Z,100704.50
2022-10-31T14:01:51.332Z,100707.00
2022-10-31T14:04:23.908Z,100704.59
2022-10-31T14:06:51.672Z,100704.75
2022-10-31T14:09:17.937Z,100694.72
2022-10-31T14:11:44.185Z,100695.59
2022-10-31T14:14:10.558Z,100686.34
2022-10-31T14:16:39.088Z,100685.09
2022-10-31T14:19:05.341Z,100683.16
2022-10-31T14:21:31.628Z,100685.31
2022-10-31T14:23:57.923Z,100678.94
2022-10-31T14:26:25.062Z,100672.28
2022-10-31T14:28:51.375Z,100668.81
2022-10-31T14:31:17.665Z,100674.03
2022-10-31T14:33:43.948Z,100667.19
2022-10-31T14:36:10.395Z,100667.81
2022-10-31T14:38:36.653Z,100660.13
2022-10-31T14:41:02.946Z,100666.31
2022-10-31T14:43:29.213Z,100659.78
2022-10-31T14:45:55.774Z,100656.81
2022-10-31T14:48:22.062Z,100657.59
2022-10-31T14:50:48.642Z,100665.66
2022-10-31T14:53:14.946Z,100664.25
2022-10-31T14:55:41.205Z,100657.84
2022-10-31T14:58:07.463Z,100655.91
2022-10-31T15:00:33.754Z,100654.09
2022-10-31T15:03:00.486Z,100652.78
2022-10-31T15:05:26.885Z,100655.00
2022-10-31T18:25:43.486Z,100547.44
2022-10-31T18:28:09.753Z,100546.44
2022-10-31T18:30:36.022Z,100540.47
2022-10-31T18:33:02.464Z,100543.88
2022-10-31T18:35:28.769Z,100542.34
2022-10-31T18:37:56.067Z,100535.44
2022-10-31T18:40:24.470Z,100535.34
2022-10-31T18:42:50.717Z,100538.38
2022-10-31T18:45:32.691Z,100534.19
2022-10-31T18:48:03.437Z,100529.69
2022-10-31T18:50:29.880Z,100532.53
2022-10-31T18:52:56.203Z,100524.56
2022-10-31T18:55:22.514Z,100522.53
2022-10-31T18:57:48.799Z,100526.50
2022-10-31T19:00:17.347Z,100523.59
2022-10-31T19:02:43.611Z,100520.19
2022-10-31T19:05:09.936Z,100521.72
2022-10-31T19:07:36.189Z,100509.09
2022-10-31T19:10:02.435Z,100513.69
2022-10-31T19:12:28.704Z,100507.38
2022-10-31T19:14:55.259Z,100511.16
2022-10-31T19:17:21.802Z,100512.84
2022-10-31T19:19:48.048Z,100504.53
2022-10-31T19:22:14.292Z,100508.97
2022-10-31T19:24:40.622Z,100509.81
2022-10-31T19:27:06.911Z,100505.41
2022-10-31T19:29:33.442Z,100514.78
2022-10-31T19:31:59.694Z,100511.19
2022-10-31T19:34:25.942Z,100508.47
2022-10-31T19:36:52.215Z,100503.84
2022-10-31T19:39:18.477Z,100499.44
2022-10-31T19:41:44.742Z,100502.53
2022-10-31T19:44:13.377Z,100496.19
2022-10-31T19:46:59.762Z,100495.19
2022-10-31T19:49:26.039Z,100490.03
2022-10-31T19:54:43.075Z,100486.97
2022-10-31T19:57:09.332Z,100485.63
2022-10-31T19:59:39.336Z,100487.69
2022-10-31T20:02:05.915Z,100483.06
2022-10-31T20:04:32.399Z,100476.75
2022-10-31T20:06:58.662Z,100461.19
2022-10-31T20:09:26.921Z,100462.41
2022-10-31T20:11:53.321Z,100450.13
2022-10-31T20:14:19.618Z,100455.44
2022-10-31T20:16:45.893Z,100455.44
2022-10-31T20:19:12.137Z,100452.88
2022-10-31T20:21:38.572Z,100452.22
2022-10-31T20:24:04.820Z,100466.19
2022-10-31T20:26:31.084Z,100470.28
2022-10-31T20:28:57.356Z,100473.66
2022-10-31T20:31:23.632Z,100468.00
2022-10-31T20:33:49.877Z,100457.94
2022-10-31T20:36:19.369Z,100457.25
2022-10-31T20:38:45.624Z,100438.78
2022-10-31T20:41:11.962Z,100440.84
2022-10-31T20:43:38.209Z,100450.78
2022-10-31T20:46:04.494Z,100453.34
2022-10-31T20:48:30.762Z,100443.59
2022-10-31T20:50:57.293Z,100437.09
2022-10-31T20:53:23.548Z,100437.94
2022-10-31T20:55:49.817Z,100437.94
2022-10-31T20:58:16.056Z,100436.25
2022-10-31T21:00:42.490Z,100427.56
2022-10-31T21:03:08.761Z,100426.34
2022-10-31T21:05:35.009Z,100427.03
2022-10-31T21:08:01.296Z,100422.59
2022-10-31T21:10:27.650Z,100413.34
2022-10-31T21:12:53.933Z,100425.13
2022-10-31T21:15:20.197Z,100413.72
2022-10-31T21:17:46.549Z,100413.72
2022-10-31T21:20:12.839Z,100415.63
2022-10-31T21:22:39.181Z,100418.16
2022-10-31T21:25:05.491Z,100418.16
2022-10-31T21:27:31.797Z,100413.66
2022-10-31T21:29:58.069Z,100410.91
2022-10-31T21:32:24.342Z,100403.94
2022-10-31T21:34:50.629Z,100394.72
2022-10-31T21:37:16.889Z,100422.22
2022-10-31T21:39:46.891Z,100416.75
2022-10-31T21:42:20.462Z,100400.53
2022-10-31T21:44:47.905Z,100405.31
